Time;durP1;ratioP1;P1;durP2;ratioP2;P2;SDS_P1;SDS_P2;PMS_P1;PMS_P2;Temp;Humidity;BMP_temperature;BMP_pressure;BME280_temperature;BME280_humidity;BME280_pressure;Samples;Min_cycle;Max_cycle;Signal;HPM_P1;HPM_P2
2023/06/23 00:02:00;;;;;;;7.85;5.97;;;20.70;99.90;;;;;;5051867;28;20325;-74
2023/06/23 00:04:27;;;;;;;6.72;5.80;;;20.70;99.90;;;;;;5051708;28;20207;-74
2023/06/23 00:06:54;;;;;;;6.95;6.18;;;20.70;99.90;;;;;;5052069;28;20215;-76
2023/06/23 00:09:22;;;;;;;12.43;5.95;;;20.60;99.90;;;;;;5051914;28;20725;-76
2023/06/23 00:11:49;;;;;;;7.70;6.35;;;20.60;99.90;;;;;;5050371;28;20202;-75
2023/06/23 00:14:17;;;;;;;7.38;5.93;;;20.60;99.90;;;;;;5051490;28;20284;-75
2023/06/23 00:16:44;;;;;;;6.90;5.93;;;20.60;99.90;;;;;;5051301;28;20710;-75
2023/06/23 00:19:11;;;;;;;8.38;6.30;;;20.60;99.90;;;;;;5051576;28;20234;-75
2023/06/23 00:21:38;;;;;;;7.43;5.22;;;20.50;99.90;;;;;;5051120;28;20209;-75
2023/06/23 00:24:06;;;;;;;7.38;5.55;;;20.50;99.90;;;;;;5051290;28;20230;-79
2023/06/23 00:26:34;;;;;;;7.38;5.72;;;20.50;99.90;;;;;;5051109;28;20206;-76
2023/06/23 00:29:01;;;;;;;5.60;5.00;;;20.50;99.90;;;;;;5051275;28;20238;-79
2023/06/23 00:31:29;;;;;;;8.07;5.75;;;20.50;99.90;;;;;;5050613;28;20687;-78
2023/06/23 00:33:56;;;;;;;7.65;5.55;;;20.40;99.90;;;;;;5051289;28;20253;-79
2023/06/23 00:36:23;;;;;;;8.88;6.35;;;20.40;99.90;;;;;;5051431;28;20717;-76
2023/06/23 00:38:49;;;;;;;7.47;5.90;;;20.40;99.90;;;;;;5050926;28;20241;-77
2023/06/23 00:41:16;;;;;;;5.45;4.95;;;20.30;99.90;;;;;;5051104;28;20242;-77
2023/06/23 00:43:49;;;;;;;5.30;4.80;;;20.30;99.90;;;;;;5050274;28;20274;-75
2023/06/23 00:46:18;;;;;;;7.30;6.32;;;20.30;99.90;;;;;;5051130;28;20652;-75
2023/06/23 00:48:47;;;;;;;6.97;5.70;;;20.30;99.90;;;;;;5050497;28;20667;-77
2023/06/23 00:51:16;;;;;;;9.15;5.90;;;20.30;99.90;;;;;;5050932;28;20250;-78
2023/06/23 00:53:47;;;;;;;8.50;5.80;;;20.30;99.90;;;;;;5050198;28;20632;-79
2023/06/23 00:56:14;;;;;;;8.65;5.50;;;20.30;99.90;;;;;;5051100;28;20207;-79
2023/06/23 00:58:42;;;;;;;7.57;5.85;;;20.30;99.90;;;;;;5050125;28;20732;-76
2023/06/23 01:01:10;;;;;;;6.93;6.25;;;20.30;99.90;;;;;;5050956;28;20234;-77
2023/06/23 01:03:38;;;;;;;7.47;6.57;;;20.30;99.90;;;;;;5050272;28;20234;-76
2023/06/23 01:06:16;;;;;;;6.43;5.15;;;20.30;99.90;;;;;;5050704;28;20238;-77
2023/06/23 01:08:49;;;;;;;7.15;5.28;;;20.30;99.90;;;;;;5050524;28;20206;-77
2023/06/23 01:11:29;;;;;;;7.07;5.65;;;20.30;99.90;;;;;;5050441;28;20206;-77
2023/06/23 01:14:03;;;;;;;6.07;5.53;;;20.30;99.90;;;;;;5050616;28;20237;-78
2023/06/23 01:16:34;;;;;;;7.97;5.43;;;20.20;99.90;;;;;;5050251;28;20206;-78
2023/06/23 01:19:16;;;;;;;8.48;5.55;;;20.20;99.90;;;;;;5050584;28;20239;-77
2023/06/23 01:21:53;;;;;;;8.07;4.95;;;20.10;99.90;;;;;;5042525;28;20269;-75
2023/06/23 01:24:36;;;;;;;7.82;5.00;;;20.20;99.90;;;;;;5050413;28;20262;-77
2023/06/23 01:27:34;;;;;;;7.35;5.47;;;20.20;99.90;;;;;;5050134;28;20250;-78
2023/06/23 01:30:05;;;;;;;6.22;4.68;;;20.20;99.90;;;;;;5010132;28;20234;-77
2023/06/23 01:32:37;;;;;;;6.15;5.53;;;20.20;99.90;;;;;;5036681;28;20210;-77
2023/06/23 01:35:10;;;;;;;6.82;5.32;;;20.20;99.90;;;;;;5050232;28;20242;-77
2023/06/23 01:37:38;;;;;;;5.57;4.68;;;20.10;99.90;;;;;;5036590;28;20203;-77
2023/06/23 01:40:10;;;;;;;7.45;5.40;;;20.10;99.90;;;;;;5050306;28;20253;-76
2023/06/23 01:42:42;;;;;;;5.10;4.70;;;20.10;99.90;;;;;;5049699;28;20313;-77
2023/06/23 01:45:13;;;;;;;7.68;5.43;;;20.10;99.90;;;;;;5050184;28;20702;-75
2023/06/23 01:47:43;;;;;;;6.00;4.68;;;20.00;99.90;;;;;;5049832;28;20202;-76
2023/06/23 01:50:12;;;;;;;7.47;5.60;;;20.00;99.90;;;;;;5050449;28;20242;-77
2023/06/23 01:52:41;;;;;;;8.20;5.72;;;19.80;99.90;;;;;;5049766;28;20209;-77
2023/06/23 01:55:10;;;;;;;12.23;6.28;;;19.80;99.90;;;;;;5049932;28;20291;-77
2023/06/23 01:57:38;;;;;;;5.90;5.30;;;19.80;99.90;;;;;;5049684;28;20238;-76
2023/06/23 02:00:11;;;;;;;5.30;4.68;;;19.70;99.90;;;;;;5050045;28;20242;-77
2023/06/23 02:02:40;;;;;;;5.75;4.82;;;19.80;99.90;;;;;;5049727;28;20317;-77
2023/06/23 02:05:09;;;;;;;7.90;5.25;;;19.80;99.90;;;;;;5050331;28;20234;-77
2023/06/23 02:07:38;;;;;;;9.32;5.68;;;19.80;99.90;;;;;;5049538;28;20211;-79
2023/06/23 02:10:07;;;;;;;8.27;5.50;;;19.70;99.90;;;;;;5049765;28;20671;-77
2023/06/23 02:12:35;;;;;;;6.05;5.40;;;19.70;99.90;;;;;;5049551;28;20210;-76
2023/06/23 02:15:04;;;;;;;9.98;5.18;;;19.70;99.90;;;;;;5049939;28;20238;-77
2023/06/23 02:17:32;;;;;;;7.20;5.55;;;19.70;99.90;;;;;;5049792;28;20242;-76
2023/06/23 02:20:06;;;;;;;11.18;5.53;;;19.70;99.90;;;;;;5049851;28;20291;-75
2023/06/23 02:22:34;;;;;;;5.50;4.90;;;19.70;99.90;;;;;;5049473;28;20264;-77
2023/06/23 02:25:02;;;;;;;7.00;5.47;;;19.70;99.90;;;;;;5049675;28;20230;-76
2023/06/23 02:27:29;;;;;;;5.80;5.20;;;19.70;99.90;;;;;;5049754;28;20215;-76
2023/06/23 02:29:58;;;;;;;7.65;4.93;;;19.60;99.90;;;;;;5049451;28;20238;-76
2023/06/23 02:32:25;;;;;;;7.70;6.25;;;19.60;99.90;;;;;;5049975;28;20246;-76
2023/06/23 02:34:52;;;;;;;6.28;5.30;;;19.60;99.90;;;;;;5052119;28;20261;-76
2023/06/23 02:37:24;;;;;;;6.97;5.57;;;19.60;99.90;;;;;;5053573;28;20202;-76
2023/06/23 02:39:55;;;;;;;8.60;5.32;;;19.60;99.90;;;;;;5053464;28;20748;-77
2023/06/23 02:42:28;;;;;;;7.10;4.78;;;19.60;99.90;;;;;;5053733;28;20245;-76
2023/06/23 02:44:59;;;;;;;6.07;5.45;;;19.60;99.90;;;;;;5053559;28;20257;-74
2023/06/23 02:47:28;;;;;;;7.35;5.05;;;19.60;99.90;;;;;;5053133;28;20234;-75
2023/06/23 02:50:02;;;;;;;8.40;5.75;;;19.50;99.90;;;;;;5053303;28;20215;-74
2023/06/23 02:52:34;;;;;;;6.72;5.15;;;19.50;99.90;;;;;;5052472;28;20210;-76
2023/06/23 02:55:04;;;;;;;7.72;4.75;;;19.50;99.90;;;;;;5053324;28;20214;-75
2023/06/23 02:57:33;;;;;;;7.38;5.30;;;19.60;99.90;;;;;;5052691;28;20231;-74
2023/06/23 03:00:05;;;;;;;6.78;5.13;;;19.50;99.90;;;;;;5052975;28;20203;-76
2023/06/23 03:02:34;;;;;;;6.80;4.82;;;19.50;99.90;;;;;;5050409;28;20659;-79
2023/06/23 03:05:02;;;;;;;6.13;5.43;;;19.40;99.90;;;;;;5053039;28;20647;-79
2023/06/23 03:07:32;;;;;;;5.95;5.25;;;19.40;99.90;;;;;;5052315;28;20214;-78
2023/06/23 03:09:59;;;;;;;6.45;5.18;;;19.40;99.90;;;;;;5053014;28;20207;-78
2023/06/23 03:12:26;;;;;;;5.25;4.78;;;19.30;99.90;;;;;;5052534;28;20234;-77
2023/06/23 03:14:54;;;;;;;8.48;4.70;;;19.40;99.90;;;;;;5053070;28;20690;-79
2023/06/23 03:17:25;;;;;;;5.60;5.10;;;19.40;99.90;;;;;;5052936;28;20265;-78
2023/06/23 03:19:57;;;;;;;9.40;5.28;;;19.30;99.90;;;;;;5053184;28;20243;-78
2023/06/23 03:22:27;;;;;;;6.45;4.78;;;19.30;99.90;;;;;;5052803;28;20242;-77
2023/06/23 03:25:02;;;;;;;8.30;5.60;;;19.30;99.90;;;;;;5052295;28;20231;-75
2023/06/23 03:27:31;;;;;;;7.85;4.75;;;19.30;99.90;;;;;;5052187;28;20206;-75
2023/06/23 03:30:03;;;;;;;8.68;5.07;;;19.20;99.90;;;;;;5052194;28;20202;-76
2023/06/23 03:32:44;;;;;;;7.57;5.45;;;19.20;99.90;;;;;;5052078;28;20202;-76
2023/06/23 03:35:15;;;;;;;5.93;4.60;;;19.20;99.90;;;;;;5052448;28;20251;-75
2023/06/23 03:37:49;;;;;;;10.95;5.85;;;19.10;99.90;;;;;;5051926;28;20242;-76
2023/06/23 03:40:20;;;;;;;7.22;4.93;;;19.10;99.90;;;;;;5052101;28;20242;-77
2023/06/23 03:42:52;;;;;;;6.28;5.18;;;19.10;99.90;;;;;;5052185;28;20248;-76
2023/06/23 03:45:21;;;;;;;5.45;4.95;;;19.00;99.90;;;;;;5051222;28;20663;-75
2023/06/23 03:47:50;;;;;;;5.63;5.13;;;19.00;99.90;;;;;;5051762;28;20202;-82
2023/06/23 03:50:23;;;;;;;8.85;5.03;;;19.00;99.90;;;;;;5051913;28;20243;-78
2023/06/23 03:52:51;;;;;;;7.20;4.97;;;19.00;99.90;;;;;;5052274;28;20242;-80
2023/06/23 03:55:21;;;;;;;5.88;5.28;;;19.00;99.90;;;;;;5052050;28;20207;-75
2023/06/23 03:57:50;;;;;;;8.02;6.22;;;18.90;99.90;;;;;;5051546;28;20207;-75
2023/06/23 04:00:20;;;;;;;9.15;5.63;;;18.80;99.90;;;;;;5051983;28;20245;-75
2023/06/23 04:02:50;;;;;;;7.95;6.03;;;18.80;99.90;;;;;;5051415;28;20309;-75
2023/06/23 04:05:18;;;;;;;8.27;6.32;;;18.90;99.90;;;;;;5051562;28;20246;-75
2023/06/23 04:07:46;;;;;;;6.85;5.93;;;18.90;99.90;;;;;;5051377;28;20238;-75
2023/06/23 04:10:15;;;;;;;6.35;5.07;;;18.80;99.90;;;;;;5051998;28;20246;-75
2023/06/23 04:12:45;;;;;;;7.00;5.55;;;18.80;99.90;;;;;;5051292;28;20256;-75
2023/06/23 04:15:14;;;;;;;6.75;6.05;;;18.70;99.90;;;;;;5051593;28;20683;-75
2023/06/23 04:17:43;;;;;;;6.78;5.38;;;18.70;99.90;;;;;;5050994;28;20207;-75
2023/06/23 04:20:13;;;;;;;7.53;5.97;;;18.70;99.90;;;;;;5051643;28;20261;-75
2023/06/23 04:22:43;;;;;;;8.77;6.15;;;18.70;99.90;;;;;;5051038;28;20253;-76
2023/06/23 04:25:12;;;;;;;6.45;5.80;;;18.80;99.90;;;;;;5051428;28;20324;-75
2023/06/23 04:27:41;;;;;;;10.00;6.05;;;18.80;99.90;;;;;;5050815;28;20238;-76
2023/06/23 04:30:11;;;;;;;9.00;5.78;;;18.90;99.90;;;;;;5051209;28;20272;-76
2023/06/23 04:32:39;;;;;;;7.97;5.82;;;18.90;99.90;;;;;;5050912;28;20686;-75
2023/06/23 04:35:08;;;;;;;6.68;4.95;;;18.90;99.90;;;;;;5051037;28;20206;-76
2023/06/23 04:37:40;;;;;;;10.13;5.68;;;19.00;99.90;;;;;;5051029;28;20207;-76
2023/06/23 04:40:12;;;;;;;9.73;5.72;;;18.90;99.90;;;;;;5051121;28;20249;-77
2023/06/23 04:42:45;;;;;;;6.07;5.47;;;18.90;99.90;;;;;;5050789;28;20221;-76
2023/06/23 04:45:17;;;;;;;10.63;5.75;;;18.90;99.90;;;;;;5051114;28;20297;-76
2023/06/23 04:47:46;;;;;;;7.38;5.97;;;19.00;99.90;;;;;;5050759;28;20206;-77
2023/06/23 04:50:16;;;;;;;9.63;5.65;;;19.00;99.90;;;;;;5050852;28;20213;-77
2023/06/23 04:52:48;;;;;;;6.28;5.68;;;19.00;99.90;;;;;;5050697;28;20199;-76
2023/06/23 04:55:18;;;;;;;6.22;5.63;;;19.00;99.90;;;;;;5050856;28;20675;-76
2023/06/23 04:57:47;;;;;;;7.15;6.05;;;19.00;99.90;;;;;;5050029;28;20588;-76
2023/06/23 05:00:21;;;;;;;7.43;5.53;;;18.90;99.90;;;;;;5050772;28;20583;-79
2023/06/23 05:02:49;;;;;;;6.07;5.47;;;18.80;99.90;;;;;;5048212;28;20202;-78
2023/06/23 05:05:21;;;;;;;8.75;6.63;;;19.00;99.90;;;;;;5050275;28;20292;-80
2023/06/23 05:07:50;;;;;;;8.23;6.65;;;19.10;99.90;;;;;;5048970;28;20241;-82
2023/06/23 05:10:19;;;;;;;13.43;8.02;;;19.20;99.90;;;;;;5050545;28;20214;-77
2023/06/23 05:12:48;;;;;;;7.03;5.72;;;19.30;99.90;;;;;;5049748;28;20738;-77
2023/06/23 05:15:18;;;;;;;9.02;5.00;;;19.40;99.90;;;;;;5040907;28;20258;-77
2023/06/23 05:17:48;;;;;;;9.43;6.18;;;19.50;99.90;;;;;;5049901;28;20205;-77
2023/06/23 05:20:18;;;;;;;6.93;5.82;;;19.60;99.90;;;;;;5050341;28;20238;-81
2023/06/23 05:22:48;;;;;;;6.50;5.00;;;19.70;99.90;;;;;;5050215;28;20237;-77
2023/06/23 05:25:17;;;;;;;6.25;5.65;;;19.70;99.90;;;;;;5050132;28;20748;-76
2023/06/23 05:27:45;;;;;;;9.05;6.43;;;19.80;99.90;;;;;;5050046;28;20557;-76
2023/06/23 05:30:18;;;;;;;10.95;6.28;;;19.90;99.90;;;;;;5050315;28;20234;-75
2023/06/23 05:32:47;;;;;;;6.25;5.43;;;19.90;99.90;;;;;;5049903;28;20242;-76
2023/06/23 05:35:16;;;;;;;11.07;6.75;;;20.00;99.90;;;;;;5050368;28;20249;-76
2023/06/23 05:37:45;;;;;;;8.45;7.03;;;20.00;99.90;;;;;;5050176;28;20760;-76
2023/06/23 05:40:14;;;;;;;9.80;6.03;;;20.00;99.90;;;;;;5050127;28;20238;-76
2023/06/23 05:42:42;;;;;;;9.07;7.20;;;20.10;99.90;;;;;;5049598;28;20245;-77
2023/06/23 05:45:10;;;;;;;6.50;5.82;;;20.10;99.90;;;;;;5049877;28;20231;-77
2023/06/23 05:47:43;;;;;;;6.65;5.95;;;20.20;99.90;;;;;;5047722;28;20242;-75
2023/06/23 05:50:20;;;;;;;8.85;6.75;;;20.20;99.90;;;;;;5045587;28;20231;-75
2023/06/23 05:52:57;;;;;;;8.13;7.15;;;20.40;99.90;;;;;;5041015;28;20246;-76
2023/06/23 05:55:29;;;;;;;10.70;5.97;;;20.40;99.90;;;;;;5046613;28;20253;-75
2023/06/23 05:58:00;;;;;;;9.68;8.27;;;20.50;99.90;;;;;;5046714;28;20206;-74
2023/06/23 06:00:32;;;;;;;7.10;6.40;;;20.50;99.90;;;;;;5047766;28;20199;-74
2023/06/23 06:03:04;;;;;;;8.70;7.43;;;20.50;99.90;;;;;;5044089;28;20217;-75
2023/06/23 06:05:33;;;;;;;9.50;7.03;;;20.60;99.90;;;;;;5049399;28;20261;-77
2023/06/23 06:08:02;;;;;;;9.43;6.55;;;20.70;99.90;;;;;;5047852;28;20725;-79
2023/06/23 06:10:31;;;;;;;7.60;6.88;;;20.70;99.90;;;;;;5045311;28;20204;-76
2023/06/23 06:13:01;;;;;;;10.60;8.75;;;20.70;99.90;;;;;;5053829;28;20218;-78
2023/06/23 06:15:29;;;;;;;10.48;7.22;;;20.80;99.90;;;;;;5052036;28;20242;-75
2023/06/23 06:17:58;;;;;;;8.35;7.45;;;20.70;99.90;;;;;;5053895;28;20627;-74
2023/06/23 06:20:28;;;;;;;9.25;8.35;;;20.70;99.90;;;;;;5052759;28;20276;-74
2023/06/23 06:22:57;;;;;;;9.98;8.13;;;20.70;99.90;;;;;;5053870;28;20226;-74
2023/06/23 06:25:25;;;;;;;9.88;8.65;;;20.70;99.90;;;;;;5052816;28;20227;-75
2023/06/23 06:27:54;;;;;;;9.00;7.10;;;20.60;99.90;;;;;;5053627;28;20737;-80
2023/06/23 06:30:23;;;;;;;8.00;6.93;;;20.50;99.90;;;;;;5052547;28;20284;-80
2023/06/23 06:32:53;;;;;;;8.25;7.28;;;20.50;99.90;;;;;;5053455;28;20247;-74
2023/06/23 06:35:22;;;;;;;7.68;6.97;;;20.50;99.90;;;;;;5053516;28;20269;-74
2023/06/23 06:37:51;;;;;;;13.07;8.00;;;20.50;99.90;;;;;;5052950;28;20238;-75
2023/06/23 06:40:24;;;;;;;10.15;7.82;;;20.70;99.90;;;;;;5052682;28;20284;-78
2023/06/23 06:42:51;;;;;;;10.73;7.75;;;20.80;99.90;;;;;;5053396;28;20209;-78
2023/06/23 06:45:18;;;;;;;8.30;7.45;;;20.90;99.90;;;;;;5052738;28;20773;-78
2023/06/23 06:47:48;;;;;;;14.90;8.52;;;20.80;99.90;;;;;;5049564;28;20242;-73
2023/06/23 06:50:16;;;;;;;9.90;8.25;;;20.90;99.90;;;;;;5045399;28;20243;-73
2023/06/23 06:52:44;;;;;;;10.95;6.85;;;20.90;99.90;;;;;;5038349;28;20260;-77
2023/06/23 06:55:19;;;;;;;11.77;7.53;;;21.10;99.90;;;;;;5040598;28;20247;-78
2023/06/23 06:57:46;;;;;;;9.95;7.13;;;21.10;99.90;;;;;;5037316;28;20726;-73
2023/06/23 07:00:15;;;;;;;7.50;6.80;;;21.00;99.90;;;;;;5038509;28;20307;-71
2023/06/23 07:02:43;;;;;;;8.25;7.10;;;20.90;99.90;;;;;;5043027;28;20202;-75
2023/06/23 07:05:10;;;;;;;10.00;7.25;;;21.00;99.90;;;;;;5043235;28;20227;-76
2023/06/23 07:07:38;;;;;;;11.23;8.02;;;21.10;99.90;;;;;;5050053;28;20666;-75
2023/06/23 07:10:06;;;;;;;7.85;6.97;;;21.20;99.90;;;;;;5051743;28;20234;-75
2023/06/23 07:12:34;;;;;;;10.38;7.32;;;21.30;99.90;;;;;;5047072;28;20203;-78
2023/06/23 07:15:02;;;;;;;10.48;7.13;;;21.20;99.90;;;;;;5044020;28;20687;-73
2023/06/23 07:17:29;;;;;;;8.80;7.88;;;21.20;99.90;;;;;;5047424;28;20613;-75
2023/06/23 07:19:56;;;;;;;9.07;7.20;;;21.30;99.90;;;;;;5051274;28;20238;-76
2023/06/23 07:22:23;;;;;;;10.63;8.20;;;21.10;99.90;;;;;;5052762;28;20242;-75
2023/06/23 07:24:50;;;;;;;7.72;6.90;;;21.20;99.90;;;;;;5052154;28;20250;-76
2023/06/23 07:27:17;;;;;;;7.43;6.70;;;21.30;99.90;;;;;;5052157;28;20710;-75
2023/06/23 07:29:46;;;;;;;7.82;6.35;;;21.40;99.90;;;;;;5051534;28;20237;-77
2023/06/23 07:32:15;;;;;;;8.63;7.45;;;21.50;99.90;;;;;;5038514;28;20238;-74
2023/06/23 07:34:42;;;;;;;7.85;7.07;;;21.50;99.90;;;;;;5051272;28;20218;-74
2023/06/23 07:37:09;;;;;;;7.07;6.38;;;21.50;99.90;;;;;;5049211;28;20286;-77
2023/06/23 07:39:36;;;;;;;7.20;6.47;;;21.50;99.90;;;;;;5044402;28;20203;-73
2023/06/23 07:42:04;;;;;;;9.88;7.07;;;21.60;99.90;;;;;;5047292;28;20243;-76
2023/06/23 07:44:32;;;;;;;7.93;7.13;;;21.90;99.90;;;;;;5041081;28;20235;-76
2023/06/23 07:47:00;;;;;;;6.88;6.18;;;22.00;99.90;;;;;;5039407;28;20294;-74
2023/06/23 07:49:27;;;;;;;9.43;7.03;;;22.20;99.90;;;;;;5038540;28;20247;-75
2023/06/23 07:51:59;;;;;;;7.72;6.32;;;22.30;99.90;;;;;;5038669;28;20235;-72
2023/06/23 07:54:26;;;;;;;7.25;5.97;;;22.50;99.90;;;;;;5043719;28;20243;-71
2023/06/23 07:56:53;;;;;;;8.13;6.18;;;22.90;99.90;;;;;;5045333;28;20575;-76
2023/06/23 07:59:21;;;;;;;9.13;6.47;;;23.40;99.90;;;;;;5045226;28;20242;-77
2023/06/23 08:01:48;;;;;;;6.07;5.47;;;23.40;99.90;;;;;;5042109;28;20210;-73
2023/06/23 08:04:16;;;;;;;7.05;6.22;;;23.30;99.90;;;;;;5047167;28;20210;-74
2023/06/23 08:06:43;;;;;;;6.30;5.70;;;23.10;99.90;;;;;;5047206;28;20300;-76
2023/06/23 08:09:10;;;;;;;6.65;5.65;;;22.90;99.90;;;;;;5051426;28;20241;-75
2023/06/23 08:11:37;;;;;;;6.63;5.95;;;22.80;99.90;;;;;;5050793;28;20249;-72
2023/06/23 08:14:04;;;;;;;7.57;6.18;;;22.90;99.90;;;;;;5051367;28;20210;-76
2023/06/23 08:16:30;;;;;;;6.47;5.82;;;22.90;99.90;;;;;;5049257;28;20203;-73
2023/06/23 08:18:57;;;;;;;7.13;6.43;;;22.80;99.90;;;;;;5048560;28;20304;-73
2023/06/23 08:21:26;;;;;;;6.75;5.97;;;22.80;99.90;;;;;;5048456;28;20234;-73
2023/06/23 08:23:52;;;;;;;8.35;6.55;;;22.90;99.90;;;;;;5048707;28;20264;-73
2023/06/23 08:26:20;;;;;;;6.28;5.60;;;22.80;99.90;;;;;;5049477;28;20265;-73
2023/06/23 08:28:46;;;;;;;8.73;6.10;;;22.80;99.90;;;;;;5049071;28;20199;-72
2023/06/23 08:31:13;;;;;;;7.28;6.22;;;22.80;99.90;;;;;;5048721;28;20238;-75
2023/06/23 08:33:40;;;;;;;6.38;5.75;;;23.10;99.90;;;;;;5046601;28;20698;-76
2023/06/23 08:36:07;;;;;;;6.80;5.63;;;23.40;99.90;;;;;;5042853;28;20265;-73
2023/06/23 08:38:36;;;;;;;6.28;5.30;;;23.90;99.90;;;;;;5048155;28;20243;-75
2023/06/23 08:41:04;;;;;;;7.93;6.25;;;24.30;99.90;;;;;;5042068;28;20311;-75
2023/06/23 08:43:34;;;;;;;6.18;5.57;;;24.30;99.90;;;;;;5050408;28;20684;-75
2023/06/23 08:46:02;;;;;;;7.13;6.35;;;24.30;99.90;;;;;;5045842;28;20265;-76
2023/06/23 08:48:31;;;;;;;6.07;5.55;;;24.30;99.90;;;;;;5050388;28;20261;-76
2023/06/23 08:51:00;;;;;;;6.80;4.95;;;24.30;99.90;;;;;;5050026;28;20451;-75
2023/06/23 08:53:28;;;;;;;6.13;5.35;;;27.00;99.90;;;;;;5050553;28;20207;-75
2023/06/23 08:55:56;;;;;;;6.63;5.03;;;27.40;99.90;;;;;;5050523;28;20227;-76
2023/06/23 08:58:25;;;;;;;10.07;6.45;;;27.10;99.90;;;;;;5051161;28;20297;-75
2023/06/23 09:00:53;;;;;;;6.70;6.10;;;28.30;99.90;;;;;;5049489;28;20272;-75
2023/06/23 09:03:21;;;;;;;6.07;5.57;;;26.80;99.90;;;;;;5050605;28;20311;-75
2023/06/23 09:05:49;;;;;;;6.00;5.35;;;25.90;99.90;;;;;;5047782;28;20584;-76
2023/06/23 09:08:16;;;;;;;6.72;5.78;;;25.80;99.90;;;;;;5048361;28;20222;-75
2023/06/23 09:10:43;;;;;;;6.50;5.90;;;26.10;99.90;;;;;;5043180;28;20203;-74
2023/06/23 09:13:23;;;;;;;7.45;5.88;;;27.00;99.90;;;;;;5050258;28;20687;-74
2023/06/23 09:15:52;;;;;;;6.45;5.75;;;27.20;99.90;;;;;;5048329;28;20202;-74
2023/06/23 09:18:19;;;;;;;5.95;5.35;;;28.30;99.90;;;;;;5049640;28;20214;-75
2023/06/23 09:20:48;;;;;;;5.85;5.32;;;29.60;99.90;;;;;;5049861;28;20731;-74
2023/06/23 09:23:16;;;;;;;5.95;5.00;;;28.50;99.90;;;;;;5042406;28;20698;-77
2023/06/23 09:25:45;;;;;;;6.68;6.07;;;27.60;99.90;;;;;;5049428;28;20778;-73
2023/06/23 09:28:27;;;;;;;5.35;4.88;;;26.80;99.90;;;;;;5048120;28;20679;-74
2023/06/23 09:30:56;;;;;;;6.97;5.55;;;26.60;99.90;;;;;;5045364;28;20198;-74
2023/06/23 09:33:24;;;;;;;5.97;5.32;;;26.30;99.90;;;;;;5050495;28;20241;-73
2023/06/23 09:35:56;;;;;;;6.72;6.13;;;26.20;99.90;;;;;;5050477;28;20285;-75
2023/06/23 09:38:24;;;;;;;5.82;5.32;;;26.40;99.90;;;;;;5049137;28;20229;-73
2023/06/23 09:41:03;;;;;;;6.28;5.63;;;26.70;99.90;;;;;;5049536;28;20207;-75
2023/06/23 09:43:37;;;;;;;6.05;5.38;;;28.50;99.90;;;;;;5051202;28;20213;-72
2023/06/23 09:46:07;;;;;;;6.00;5.50;;;32.60;99.90;;;;;;5054288;28;20662;-73
2023/06/23 09:48:34;;;;;;;6.15;5.65;;;34.10;99.90;;;;;;5053754;28;20241;-73
2023/06/23 09:51:02;;;;;;;6.57;5.30;;;33.20;99.90;;;;;;5053517;28;20256;-73
2023/06/23 09:53:33;;;;;;;6.93;6.05;;;33.50;99.90;;;;;;5053033;28;20213;-75
2023/06/23 09:56:00;;;;;;;5.57;5.07;;;35.50;99.90;;;;;;5054196;28;20214;-73
2023/06/23 09:58:36;;;;;;;5.07;4.68;;;38.00;99.90;;;;;;5053884;28;20245;-73
2023/06/23 10:01:07;;;;;;;6.40;5.00;;;40.90;99.90;;;;;;5052927;28;20271;-73
2023/06/23 10:03:43;;;;;;;6.85;5.35;;;41.10;99.90;;;;;;5052666;28;20319;-73
2023/06/23 10:06:20;;;;;;;5.78;5.18;;;40.40;99.90;;;;;;5053806;28;20263;-72
2023/06/23 10:08:47;;;;;;;5.57;5.07;;;40.20;99.90;;;;;;5049984;28;20627;-76
2023/06/23 10:11:17;;;;;;;6.50;5.22;;;40.60;99.90;;;;;;5053716;28;20244;-72
2023/06/23 10:13:46;;;;;;;6.75;5.30;;;41.70;99.90;;;;;;5053348;28;20337;-76
2023/06/23 10:16:14;;;;;;;5.70;5.15;;;40.50;99.90;;;;;;5051699;28;20226;-72
2023/06/23 10:18:42;;;;;;;6.97;5.15;;;40.60;99.90;;;;;;5047023;28;20241;-74
2023/06/23 10:21:09;;;;;;;5.43;4.93;;;40.90;99.90;;;;;;5053447;28;20672;-75
2023/06/23 10:23:36;;;;;;;6.72;5.85;;;41.70;99.90;;;;;;5052834;28;20268;-72
2023/06/23 10:26:04;;;;;;;5.47;5.07;;;42.70;99.90;;;;;;5053529;28;20261;-74
2023/06/23 10:28:36;;;;;;;7.40;5.03;;;41.00;99.90;;;;;;5053103;28;20307;-75
2023/06/23 10:31:06;;;;;;;4.75;4.40;;;36.70;99.90;;;;;;5053671;28;20210;-74
2023/06/23 10:33:38;;;;;;;5.55;5.05;;;32.90;99.90;;;;;;5052957;28;20202;-72
2023/06/23 10:36:08;;;;;;;6.18;5.68;;;30.90;99.90;;;;;;5053592;28;20202;-73
2023/06/23 10:38:39;;;;;;;6.30;5.80;;;29.80;99.90;;;;;;5052340;28;20943;-72
2023/06/23 10:41:08;;;;;;;6.28;5.65;;;28.90;99.90;;;;;;5053304;28;20260;-72
2023/06/23 10:43:40;;;;;;;6.82;6.10;;;27.90;99.90;;;;;;5048098;28;20206;-74
2023/06/23 10:46:08;;;;;;;5.68;5.18;;;27.70;99.90;;;;;;5053127;28;20269;-72
2023/06/23 10:48:36;;;;;;;5.45;4.80;;;27.80;99.90;;;;;;5049189;28;20655;-76
2023/06/23 10:51:03;;;;;;;5.63;5.10;;;27.50;99.90;;;;;;5052796;28;20246;-73
2023/06/23 10:53:32;;;;;;;5.43;5.03;;;27.50;99.90;;;;;;5052459;28;20242;-73
2023/06/23 10:56:00;;;;;;;6.82;4.85;;;27.30;99.90;;;;;;5052496;28;20218;-73
2023/06/23 10:58:28;;;;;;;5.78;5.28;;;27.40;99.90;;;;;;5052440;28;20210;-74
2023/06/23 11:01:00;;;;;;;5.72;5.22;;;27.30;99.90;;;;;;5052748;28;20662;-73
2023/06/23 11:03:33;;;;;;;5.95;5.35;;;27.20;99.90;;;;;;5052515;28;20207;-72
2023/06/23 11:06:04;;;;;;;5.32;4.82;;;27.30;99.90;;;;;;5052000;28;20796;-72
2023/06/23 11:08:33;;;;;;;4.53;4.13;;;27.40;99.90;;;;;;5052331;28;20234;-72
2023/06/23 11:11:04;;;;;;;5.60;5.07;;;27.20;99.90;;;;;;5051524;28;20254;-73
2023/06/23 11:13:42;;;;;;;5.22;4.75;;;26.90;99.90;;;;;;5052067;28;20210;-72
2023/06/23 11:16:15;;;;;;;6.32;5.05;;;26.80;99.90;;;;;;5052693;28;20203;-73
2023/06/23 11:18:51;;;;;;;5.25;4.85;;;26.80;99.90;;;;;;5052240;28;20209;-74
2023/06/23 11:21:19;;;;;;;4.72;4.32;;;26.80;99.90;;;;;;5051958;28;20289;-73
2023/06/23 11:24:09;;;;;;;6.00;5.07;;;27.10;99.90;;;;;;5052098;28;20246;-75
2023/06/23 11:26:36;;;;;;;4.55;4.18;;;27.10;99.90;;;;;;5051729;28;20263;-72
2023/06/23 11:29:10;;;;;;;4.75;4.35;;;26.90;99.90;;;;;;5050967;28;20202;-72
2023/06/23 11:32:07;;;;;;;4.68;4.28;;;26.80;99.90;;;;;;5051903;28;20263;-72
2023/06/23 11:34:51;;;;;;;5.22;4.72;;;27.10;99.90;;;;;;5051898;28;20576;-72
2023/06/23 11:37:18;;;;;;;5.40;4.78;;;27.10;99.90;;;;;;5050200;28;20648;-75
2023/06/23 11:39:46;;;;;;;4.55;4.15;;;27.10;99.90;;;;;;5052245;28;20740;-72
2023/06/23 11:42:13;;;;;;;4.90;3.78;;;27.20;99.90;;;;;;5052088;28;20239;-72
2023/06/23 11:44:39;;;;;;;4.15;3.75;;;27.20;99.90;;;;;;5052167;28;20238;-76
2023/06/23 11:47:07;;;;;;;4.45;3.33;;;27.20;99.90;;;;;;5052105;28;20728;-76
2023/06/23 11:49:36;;;;;;;4.70;4.30;;;27.30;99.90;;;;;;5051661;28;20242;-72
2023/06/23 11:52:06;;;;;;;3.83;3.40;;;27.30;99.90;;;;;;5052057;28;20215;-75
2023/06/23 11:54:35;;;;;;;4.65;4.00;;;27.30;99.90;;;;;;5051965;28;20234;-75
2023/06/23 11:57:03;;;;;;;5.50;4.28;;;27.30;99.90;;;;;;5052195;28;20210;-72
2023/06/23 11:59:34;;;;;;;5.53;4.78;;;27.40;99.90;;;;;;5051786;28;20207;-72
2023/06/23 12:02:01;;;;;;;4.68;4.18;;;27.30;99.90;;;;;;5051442;28;20203;-73
2023/06/23 12:04:28;;;;;;;5.50;4.45;;;27.40;99.90;;;;;;5051120;28;20683;-74
2023/06/23 12:06:57;;;;;;;5.45;4.20;;;26.80;99.90;;;;;;5050482;28;20234;-75
2023/06/23 12:09:26;;;;;;;4.18;3.58;;;26.90;99.90;;;;;;5045031;28;20234;-73
2023/06/23 12:11:54;;;;;;;4.82;4.25;;;27.10;99.90;;;;;;5043930;28;20615;-73
2023/06/23 12:14:28;;;;;;;3.95;3.65;;;27.10;99.90;;;;;;5049181;28;20207;-72
2023/06/23 12:17:04;;;;;;;3.72;3.42;;;27.30;99.90;;;;;;5041565;28;20252;-73
2023/06/23 12:19:32;;;;;;;4.28;3.72;;;27.60;99.90;;;;;;5050534;28;20217;-72
2023/06/23 12:21:59;;;;;;;3.97;3.58;;;27.30;99.90;;;;;;5051011;28;20692;-73
2023/06/23 12:24:30;;;;;;;3.70;3.40;;;27.20;99.90;;;;;;5050043;28;20721;-73
2023/06/23 12:26:58;;;;;;;13.18;11.77;;;27.10;99.90;;;;;;5039881;28;20315;-73
2023/06/23 12:29:25;;;;;;;5.25;4.72;;;27.50;99.90;;;;;;5048003;28;20205;-75
2023/06/23 12:31:57;;;;;;;4.35;3.75;;;27.60;99.90;;;;;;5047754;28;20239;-74
2023/06/23 12:34:31;;;;;;;3.28;2.90;;;27.40;99.90;;;;;;5047736;28;20211;-72
2023/06/23 12:37:05;;;;;;;5.20;4.20;;;27.20;99.90;;;;;;5045002;28;20234;-72
2023/06/23 12:39:34;;;;;;;4.13;3.70;;;27.30;99.90;;;;;;5050838;28;20206;-72
2023/06/23 12:42:02;;;;;;;4.80;3.17;;;27.40;99.90;;;;;;5050574;28;20250;-71
2023/06/23 12:44:31;;;;;;;9.38;4.53;;;27.50;99.90;;;;;;5050998;28;20594;-73
2023/06/23 12:46:58;;;;;;;3.88;3.47;;;27.70;99.90;;;;;;5041434;28;20785;-72
2023/06/23 12:49:31;;;;;;;12.82;4.53;;;27.60;99.90;;;;;;5049487;28;20207;-74
2023/06/23 12:51:58;;;;;;;8.50;3.53;;;27.50;99.90;;;;;;5050239;28;20272;-74
2023/06/23 12:54:26;;;;;;;7.72;4.38;;;27.40;99.90;;;;;;5039990;28;20232;-73
2023/06/23 12:56:57;;;;;;;30.45;8.68;;;27.50;99.90;;;;;;5043991;28;20246;-72
2023/06/23 12:59:25;;;;;;;5.68;3.28;;;27.50;99.90;;;;;;5049318;28;20217;-71